createdAt,value
2023-08-02T00:00:54.236Z,83.07
2023-08-02T00:01:54.261Z,83.17
2023-08-02T00:02:54.226Z,83.07
2023-08-02T00:04:09.747Z,83.27
2023-08-02T00:04:54.223Z,83.17
2023-08-02T00:05:54.169Z,83.27
2023-08-02T00:06:54.233Z,83.31
2023-08-02T00:07:54.181Z,83.31
2023-08-02T00:08:54.135Z,83.31
2023-08-02T00:09:54.151Z,83.21
2023-08-02T00:10:54.097Z,83.31
2023-08-02T00:11:54.104Z,83.41
2023-08-02T00:12:54.089Z,83.21
2023-08-02T00:13:54.081Z,83.31
2023-08-02T00:14:54.062Z,83.31
2023-08-02T00:15:54.051Z,83.31
2023-08-02T00:16:54.145Z,83.21
2023-08-02T00:17:54.074Z,83.41
2023-08-02T00:18:54.028Z,83.41
2023-08-02T00:19:54.055Z,83.41
2023-08-02T00:20:54.010Z,83.41
2023-08-02T00:21:54.059Z,83.41
2023-08-02T00:22:53.976Z,83.51
2023-08-02T00:23:53.966Z,83.51
2023-08-02T00:24:53.976Z,83.51
2023-08-02T00:25:53.975Z,83.72
2023-08-02T00:26:53.935Z,83.61
2023-08-02T00:27:53.927Z,83.61
2023-08-02T00:28:53.937Z,83.61
2023-08-02T00:29:53.932Z,83.61
2023-08-02T00:30:53.979Z,83.72
2023-08-02T00:31:53.877Z,83.72
2023-08-02T00:32:53.911Z,83.51
2023-08-02T00:33:53.851Z,83.41
2023-08-02T00:34:53.858Z,83.31
2023-08-02T00:35:53.854Z,83.41
2023-08-02T00:36:53.888Z,83.31
2023-08-02T00:37:53.829Z,83.31
2023-08-02T00:38:53.790Z,83.21
2023-08-02T00:39:53.797Z,83.31
2023-08-02T00:40:53.823Z,83.21
2023-08-02T00:41:53.760Z,83.21
2023-08-02T00:42:53.781Z,83.21
2023-08-02T00:43:53.759Z,83.31
2023-08-02T00:44:53.734Z,83.31
2023-08-02T00:45:53.784Z,83.31
2023-08-02T00:46:53.838Z,83.31
2023-08-02T00:47:54.552Z,83.21
2023-08-02T00:48:53.676Z,83.31
2023-08-02T00:49:53.714Z,83.21
2023-08-02T00:50:53.664Z,83.21
2023-08-02T00:51:53.685Z,83.21
2023-08-02T00:52:53.680Z,83.11
2023-08-02T00:53:53.645Z,83.15
2023-08-02T00:54:53.739Z,83.25
2023-08-02T00:55:53.605Z,83.35
2023-08-02T00:56:53.600Z,83.25
2023-08-02T00:57:53.582Z,83.25
2023-08-02T00:58:53.592Z,83.35
2023-08-02T00:59:53.596Z,83.35
2023-08-02T01:00:53.545Z,83.35
2023-08-02T01:01:53.562Z,83.45
2023-08-02T01:02:53.576Z,83.15
2023-08-02T01:03:53.526Z,83.04
2023-08-02T01:04:53.544Z,83.15
2023-08-02T01:05:54.178Z,83.25
2023-08-02T01:06:53.520Z,83.04
2023-08-02T01:07:53.490Z,82.95
2023-08-02T01:08:53.469Z,82.75
2023-08-02T01:09:53.441Z,82.75
2023-08-02T01:10:53.430Z,82.84
2023-08-02T01:11:53.434Z,82.64
2023-08-02T01:12:53.424Z,82.64
2023-08-02T01:13:53.417Z,82.75
2023-08-02T01:14:55.961Z,82.64
2023-08-02T01:15:53.467Z,82.44
2023-08-02T01:16:53.384Z,82.44
2023-08-02T01:17:53.437Z,82.24
2023-08-02T01:18:53.406Z,82.14
2023-08-02T01:19:53.347Z,82.03
2023-08-02T01:20:53.324Z,81.83
2023-08-02T01:21:53.393Z,81.93
2023-08-02T01:22:53.312Z,82.03
2023-08-02T01:23:53.321Z,82.14
2023-08-02T01:24:53.304Z,82.14
2023-08-02T01:25:53.271Z,81.83
2023-08-02T01:26:53.286Z,81.73
2023-08-02T01:27:53.282Z,81.52
2023-08-02T01:28:53.326Z,81.52
2023-08-02T01:29:53.223Z,81.63
2023-08-02T01:30:53.201Z,81.52
2023-08-02T01:31:54.167Z,81.43
2023-08-02T01:32:53.230Z,81.52
2023-08-02T01:33:53.181Z,81.73
2023-08-02T01:34:53.169Z,81.52
2023-08-02T01:35:53.169Z,81.52
2023-08-02T01:36:53.154Z,81.52
2023-08-02T01:37:53.160Z,81.43
2023-08-02T01:38:53.119Z,81.52
2023-08-02T01:39:53.114Z,81.63
2023-08-02T01:40:53.098Z,81.52
2023-08-02T01:41:53.117Z,81.32
2023-08-02T01:42:53.078Z,81.63
2023-08-02T01:43:53.078Z,81.43
2023-08-02T01:44:53.046Z,81.83
2023-08-02T01:45:53.093Z,81.52
2023-08-02T01:46:53.112Z,81.63
2023-08-02T01:47:53.083Z,81.63
2023-08-02T01:48:53.023Z,81.52
2023-08-02T01:49:53.016Z,81.52
2023-08-02T01:50:52.995Z,81.43
2023-08-02T01:51:52.990Z,81.43
2023-08-02T01:52:52.971Z,81.43
2023-08-02T01:53:52.994Z,81.43
2023-08-02T01:54:52.943Z,81.32
2023-08-02T01:55:52.969Z,81.63
2023-08-02T01:56:52.934Z,81.83
2023-08-02T01:57:52.907Z,81.97
2023-08-02T01:58:52.896Z,81.87
2023-08-02T01:59:52.912Z,81.77
2023-08-02T02:00:52.925Z,81.77
2023-08-02T02:01:52.865Z,82.07
2023-08-02T02:02:52.960Z,82.07
2023-08-02T02:03:52.951Z,82.07
2023-08-02T02:04:52.838Z,82.17
2023-08-02T02:05:52.835Z,82.07
2023-08-02T02:06:52.864Z,82.07
2023-08-02T02:07:52.835Z,82.07
2023-08-02T02:08:52.780Z,82.28
2023-08-02T02:09:52.808Z,82.38
2023-08-02T02:10:52.796Z,82.52
2023-08-02T02:11:52.755Z,82.52
2023-08-02T02:12:52.753Z,82.82
2023-08-02T02:13:52.732Z,82.62
2023-08-02T02:14:52.745Z,82.72
2023-08-02T02:15:52.746Z,82.72
2023-08-02T02:16:52.715Z,82.62
2023-08-02T02:17:52.739Z,82.72
2023-08-02T02:18:52.674Z,82.72
2023-08-02T02:19:52.722Z,82.92
2023-08-02T02:20:52.658Z,82.92
2023-08-02T02:21:52.693Z,83.03
2023-08-02T02:22:52.648Z,83.12
2023-08-02T02:23:52.644Z,83.23
2023-08-02T02:24:52.678Z,83.03
2023-08-02T02:25:52.604Z,83.12
2023-08-02T02:26:52.580Z,83.37
2023-08-02T02:27:52.578Z,83.57
2023-08-02T02:28:52.581Z,83.67
2023-08-02T02:29:52.605Z,83.57
2023-08-02T02:30:52.582Z,83.57
2023-08-02T02:31:52.594Z,83.67
2023-08-02T02:32:52.591Z,83.77
2023-08-02T02:33:52.520Z,83.77
2023-08-02T02:34:52.507Z,83.77
2023-08-02T02:35:52.492Z,84.18
2023-08-02T02:36:52.478Z,84.18
2023-08-02T02:37:52.513Z,84.18
2023-08-02T02:38:52.481Z,84.12
2023-08-02T02:39:52.454Z,84.12
2023-08-02T02:40:52.462Z,84.22
2023-08-02T02:41:52.418Z,84.32
2023-08-02T02:42:52.602Z,84.32
2023-08-02T02:43:52.423Z,84.52
2023-08-02T02:44:52.417Z,84.42
2023-08-02T02:45:52.394Z,84.52
2023-08-02T02:46:52.443Z,84.42
2023-08-02T02:47:52.481Z,84.52
2023-08-02T02:48:52.383Z,84.52
2023-08-02T02:49:52.341Z,84.52
2023-08-02T02:50:52.334Z,84.52
2023-08-02T02:51:52.349Z,84.63
2023-08-02T02:52:52.329Z,84.72
2023-08-02T02:53:52.311Z,84.63
2023-08-02T02:54:52.279Z,84.52
2023-08-02T02:55:52.266Z,84.52
2023-08-02T02:56:52.254Z,84.52
2023-08-02T02:57:52.286Z,84.42
2023-08-02T02:58:52.228Z,84.46
2023-08-02T02:59:52.261Z,84.56
2023-08-02T03:00:52.231Z,84.46
2023-08-02T03:01:52.261Z,84.56
2023-08-02T03:02:52.297Z,84.56
2023-08-02T03:03:52.182Z,84.66
2023-08-02T03:04:52.170Z,84.46
2023-08-02T03:05:52.166Z,84.46
2023-08-02T03:06:52.183Z,84.36
2023-08-02T03:07:52.144Z,84.36
2023-08-02T03:08:52.146Z,84.56
2023-08-02T03:09:52.944Z,84.77
2023-08-02T03:10:52.264Z,84.77
2023-08-02T03:11:52.120Z,84.66
2023-08-02T03:12:52.097Z,84.66
2023-08-02T03:13:52.070Z,84.66
2023-08-02T03:14:52.045Z,84.46
2023-08-02T03:15:52.046Z,84.66
2023-08-02T03:16:52.105Z,84.46
2023-08-02T03:17:52.061Z,84.36
2023-08-02T03:18:52.019Z,84.36
2023-08-02T03:19:51.997Z,84.46
2023-08-02T03:20:52.021Z,84.56
2023-08-02T03:21:52.349Z,84.66
2023-08-02T03:22:51.961Z,84.87
2023-08-02T03:23:51.982Z,84.87
2023-08-02T03:24:51.968Z,84.77
2023-08-02T03:25:51.939Z,84.77
2023-08-02T03:26:51.927Z,84.87
2023-08-02T03:27:51.917Z,85.01
2023-08-02T03:28:51.887Z,85.11
2023-08-02T03:29:51.904Z,85.31
2023-08-02T03:30:51.953Z,85.31
2023-08-02T03:31:51.875Z,85.62
2023-08-02T03:32:51.868Z,85.62
2023-08-02T03:34:04.902Z,85.62
2023-08-02T03:34:51.825Z,85.62
2023-08-02T03:35:51.859Z,85.82
2023-08-02T03:36:51.879Z,85.82
2023-08-02T03:37:52.665Z,85.92
2023-08-02T03:38:51.827Z,86.02
2023-08-02T03:39:51.778Z,86.13
2023-08-02T03:40:51.784Z,86.27
2023-08-02T03:41:51.744Z,86.27
2023-08-02T03:42:51.736Z,86.37
2023-08-02T03:43:51.733Z,86.57
2023-08-02T03:44:51.723Z,86.47
2023-08-02T03:45:51.732Z,86.57
2023-08-02T03:46:51.724Z,86.57
2023-08-02T03:47:51.705Z,86.68
2023-08-02T03:48:51.668Z,86.77
2023-08-02T03:49:51.677Z,86.98
2023-08-02T03:50:51.665Z,87.08
2023-08-02T03:51:51.675Z,87.18
2023-08-02T03:52:51.658Z,87.18
2023-08-02T03:53:51.631Z,87.08
2023-08-02T03:54:51.608Z,86.88
2023-08-02T03:55:51.614Z,86.77
2023-08-02T03:56:51.599Z,86.77
2023-08-02T03:57:51.598Z,86.98
2023-08-02T03:58:51.551Z,87.49
2023-08-02T03:59:51.582Z,87.49
2023-08-02T04:00:51.541Z,87.29
2023-08-02T04:01:51.596Z,87.38
2023-08-02T04:02:51.535Z,87.53
2023-08-02T04:03:51.666Z,87.63
2023-08-02T04:04:51.514Z,87.32
2023-08-02T04:05:51.480Z,87.23
2023-08-02T04:06:52.684Z,87.32
2023-08-02T04:07:51.485Z,87.43
2023-08-02T04:08:51.451Z,87.43
2023-08-02T04:09:51.462Z,87.23
2023-08-02T04:10:51.423Z,87.23
2023-08-02T04:11:51.413Z,87.32
2023-08-02T04:12:51.407Z,87.23
2023-08-02T04:13:51.415Z,87.32
2023-08-02T04:14:51.403Z,87.32
2023-08-02T04:15:51.414Z,87.29
2023-08-02T04:16:51.428Z,87.08
2023-08-02T04:17:51.391Z,86.98
2023-08-02T04:18:51.386Z,86.98
2023-08-02T04:19:51.403Z,86.88
2023-08-02T04:20:51.343Z,86.77
2023-08-02T04:21:51.297Z,86.77
2023-08-02T04:22:51.330Z,86.77
2023-08-02T04:23:51.319Z,86.68
2023-08-02T04:24:51.274Z,86.68
2023-08-02T04:25:51.271Z,86.57
2023-08-02T04:26:51.253Z,86.57
2023-08-02T04:27:51.262Z,86.37
2023-08-02T04:28:51.225Z,86.27
2023-08-02T04:29:51.264Z,86.07
2023-08-02T04:30:51.292Z,85.96
2023-08-02T04:31:51.291Z,85.92
2023-08-02T04:32:51.257Z,85.92
2023-08-02T04:33:51.181Z,85.92
2023-08-02T04:34:51.192Z,85.92
2023-08-02T04:35:51.140Z,85.82
2023-08-02T04:36:51.200Z,85.82
2023-08-02T04:37:51.126Z,85.82
2023-08-02T04:38:51.135Z,85.72
2023-08-02T04:39:51.119Z,85.52
2023-08-02T04:40:51.107Z,85.52
2023-08-02T04:41:51.129Z,85.62
2023-08-02T04:42:51.089Z,85.62
2023-08-02T04:43:51.069Z,85.38
2023-08-02T04:44:51.102Z,84.97
2023-08-02T04:45:51.096Z,84.87
2023-08-02T04:46:51.108Z,84.97
2023-08-02T04:47:51.169Z,84.66
2023-08-02T04:48:51.057Z,84.77
2023-08-02T04:49:50.983Z,84.46
2023-08-02T04:50:51.022Z,84.36
2023-08-02T04:51:50.972Z,84.26
2023-08-02T04:52:50.969Z,84.36
2023-08-02T04:53:50.942Z,84.26
2023-08-02T04:54:50.955Z,84.22
2023-08-02T04:55:51.787Z,84.22
2023-08-02T04:56:50.942Z,84.01
2023-08-02T04:57:50.925Z,84.01
2023-08-02T04:58:50.905Z,83.81
2023-08-02T04:59:50.892Z,83.81
2023-08-02T05:00:50.945Z,83.61
2023-08-02T05:01:50.971Z,83.71
2023-08-02T05:02:51.824Z,83.81
2023-08-02T05:03:50.858Z,83.81
2023-08-02T05:04:50.875Z,83.71
2023-08-02T05:05:50.845Z,83.61
2023-08-02T05:06:50.829Z,83.71
2023-08-02T05:07:50.807Z,83.71
2023-08-02T05:08:50.856Z,83.81
2023-08-02T05:09:50.786Z,84.01
2023-08-02T05:10:50.767Z,84.01
2023-08-02T05:11:50.739Z,83.61
2023-08-02T05:12:50.766Z,83.40
2023-08-02T05:13:50.729Z,83.40
2023-08-02T05:14:50.750Z,83.37
2023-08-02T05:15:50.748Z,83.26
2023-08-02T05:16:50.848Z,83.26
2023-08-02T05:17:50.695Z,83.26
2023-08-02T05:18:50.705Z,82.96
2023-08-02T05:19:50.776Z,83.06
2023-08-02T05:20:50.643Z,83.06
2023-08-02T05:21:50.657Z,82.76
2023-08-02T05:22:50.644Z,82.66
2023-08-02T05:23:52.145Z,82.35
2023-08-02T05:24:50.620Z,82.42
2023-08-02T05:25:50.587Z,82.01
2023-08-02T05:26:50.627Z,81.71
2023-08-02T05:27:50.651Z,81.91
2023-08-02T05:28:50.757Z,81.60
2023-08-02T05:29:50.560Z,81.16
2023-08-02T05:30:50.540Z,81.26
2023-08-02T05:31:50.542Z,81.16
2023-08-02T05:32:50.533Z,81.06
2023-08-02T05:33:50.525Z,80.76
2023-08-02T05:34:50.512Z,80.72
2023-08-02T05:35:50.486Z,80.41
2023-08-02T05:36:50.474Z,80.72
2023-08-02T05:37:50.592Z,80.52
2023-08-02T05:38:50.446Z,80.31
2023-08-02T05:39:50.453Z,80.21
2023-08-02T05:40:50.458Z,80.01
2023-08-02T05:41:50.422Z,80.11
2023-08-02T05:42:50.450Z,80.01
2023-08-02T05:43:50.384Z,79.91
2023-08-02T05:44:50.382Z,79.71
2023-08-02T05:45:50.412Z,79.57
2023-08-02T05:46:50.454Z,79.46
2023-08-02T05:47:50.414Z,79.67
2023-08-02T05:48:50.388Z,79.36
2023-08-02T05:49:50.365Z,79.57
2023-08-02T05:50:50.330Z,79.26
2023-08-02T05:51:50.360Z,78.86
2023-08-02T05:52:50.294Z,78.86
2023-08-02T05:53:50.299Z,78.96
2023-08-02T05:54:50.281Z,79.26
2023-08-02T05:55:50.307Z,79.46
2023-08-02T05:56:50.270Z,79.46
2023-08-02T05:57:50.282Z,79.26
2023-08-02T05:58:50.281Z,79.46
2023-08-02T05:59:50.235Z,79.87
2023-08-02T06:00:50.214Z,79.33
2023-08-02T06:01:50.324Z,79.33
2023-08-02T06:02:50.207Z,79.33
2023-08-02T06:03:50.181Z,79.33
2023-08-02T06:04:50.184Z,78.62
2023-08-02T06:05:50.217Z,78.72
2023-08-02T06:06:50.145Z,78.62
2023-08-02T06:07:50.143Z,78.42
2023-08-02T06:08:50.122Z,78.72
2023-08-02T06:09:50.109Z,78.31
2023-08-02T06:10:51.684Z,78.11
2023-08-02T06:11:50.100Z,78.21
2023-08-02T06:12:50.087Z,78.21
2023-08-02T06:13:50.054Z,78.11
2023-08-02T06:14:50.107Z,77.81
2023-08-02T06:15:50.088Z,78.11
2023-08-02T06:16:50.101Z,78.11
2023-08-02T06:17:50.095Z,78.17
2023-08-02T06:18:49.993Z,77.97
2023-08-02T06:19:49.999Z,77.87
2023-08-02T06:20:50.046Z,77.97
2023-08-02T06:21:49.968Z,77.26
2023-08-02T06:22:49.957Z,77.57
2023-08-02T06:23:49.965Z,77.47
2023-08-02T06:24:49.945Z,77.97
2023-08-02T06:25:49.946Z,77.97
2023-08-02T06:26:49.940Z,78.08
2023-08-02T06:27:49.903Z,77.87
2023-08-02T06:28:49.989Z,77.97
2023-08-02T06:29:49.945Z,78.38
2023-08-02T06:30:50.033Z,77.97
2023-08-02T06:31:49.847Z,78.08
2023-08-02T06:32:49.951Z,78.17
2023-08-02T06:33:49.834Z,78.34
2023-08-02T06:34:49.853Z,78.14
2023-08-02T06:35:49.815Z,78.55
2023-08-02T06:36:49.806Z,78.14
2023-08-02T06:37:50.789Z,77.94
2023-08-02T06:38:49.795Z,78.04
2023-08-02T06:39:49.802Z,78.44
2023-08-02T06:40:49.790Z,78.44
2023-08-02T06:41:49.825Z,78.34
2023-08-02T06:42:49.784Z,78.14
2023-08-02T06:43:49.929Z,78.14
2023-08-02T06:44:50.192Z,78.14
2023-08-02T06:45:49.727Z,77.84
2023-08-02T06:46:49.718Z,78.04
2023-08-02T06:47:49.722Z,78.04
2023-08-02T06:48:49.699Z,78.24
2023-08-02T06:49:49.651Z,77.94
2023-08-02T06:50:49.649Z,77.73
2023-08-02T06:51:49.644Z,77.84
2023-08-02T06:52:49.625Z,78.44
2023-08-02T06:53:50.600Z,78.44
2023-08-02T06:54:49.675Z,78.64
2023-08-02T06:55:49.641Z,79.05
2023-08-02T06:56:49.578Z,78.95
2023-08-02T06:57:49.565Z,79.35
2023-08-02T06:58:49.608Z,79.66
2023-08-02T06:59:49.556Z,80.06
2023-08-02T07:00:49.571Z,80.16
2023-08-02T07:01:49.521Z,79.96
2023-08-02T07:02:49.613Z,80.06
2023-08-02T07:03:49.499Z,79.96
2023-08-02T07:04:49.581Z,80.36
2023-08-02T07:05:49.481Z,80.66
2023-08-02T07:06:49.526Z,80.57
2023-08-02T07:07:49.452Z,80.66
2023-08-02T07:08:49.439Z,80.57
2023-08-02T07:09:49.438Z,81.17
2023-08-02T07:10:49.440Z,81.07
2023-08-02T07:11:49.695Z,80.97
2023-08-02T07:12:49.422Z,81.48
2023-08-02T07:13:49.395Z,81.17
2023-08-02T07:14:49.391Z,82.28
2023-08-02T07:15:49.352Z,82.69
2023-08-02T07:16:49.420Z,82.49
2023-08-02T07:17:51.996Z,82.69
2023-08-02T07:18:49.325Z,82.89
2023-08-02T07:19:49.309Z,83.15
2023-08-02T07:20:49.387Z,83.46
2023-08-02T07:21:49.312Z,82.85
2023-08-02T07:22:49.297Z,82.75
2023-08-02T07:23:49.280Z,83.36
2023-08-02T07:24:49.278Z,83.46
2023-08-02T07:25:49.250Z,83.46
2023-08-02T07:26:49.324Z,83.36
2023-08-02T07:27:49.224Z,83.66
2023-08-02T07:28:49.246Z,83.56
2023-08-02T07:29:50.345Z,83.26
2023-08-02T07:30:49.218Z,83.86
2023-08-02T07:31:49.200Z,83.46
2023-08-02T07:32:49.206Z,82.95
2023-08-02T07:33:49.149Z,83.26
2023-08-02T07:34:49.186Z,82.65
2023-08-02T07:35:49.145Z,82.55
2023-08-02T07:36:49.196Z,83.26
2023-08-02T07:37:49.116Z,83.26
2023-08-02T07:38:49.173Z,83.15
2023-08-02T07:39:49.083Z,83.52
2023-08-02T07:40:50.539Z,83.32
2023-08-02T07:41:49.982Z,83.22
2023-08-02T07:42:49.053Z,83.92
2023-08-02T07:43:49.056Z,82.31
2023-08-02T07:44:49.043Z,82.71
2023-08-02T07:45:49.030Z,83.18
2023-08-02T07:46:49.121Z,82.47
2023-08-02T07:47:50.273Z,82.37
2023-08-02T07:48:49.002Z,82.47
2023-08-02T07:49:49.122Z,82.07
2023-08-02T07:50:48.986Z,82.27
2023-08-02T07:51:49.056Z,82.67
2023-08-02T07:52:49.073Z,82.57
2023-08-02T07:53:48.921Z,81.16
2023-08-02T07:54:56.456Z,81.46
2023-08-02T07:55:49.394Z,81.36
2023-08-02T07:56:48.928Z,81.46
2023-08-02T07:57:48.881Z,80.96
2023-08-02T07:58:48.882Z,81.67
2023-08-02T07:59:48.877Z,81.76
2023-08-02T08:00:48.857Z,82.27
2023-08-02T08:01:49.624Z,81.56
2023-08-02T08:02:48.891Z,81.87
2023-08-02T08:03:48.845Z,82.27
2023-08-02T08:04:48.980Z,81.67
2023-08-02T08:05:48.915Z,81.96
2023-08-02T08:06:48.973Z,81.62
2023-08-02T08:07:48.805Z,81.12
2023-08-02T08:08:48.765Z,81.52
2023-08-02T08:09:48.830Z,81.73
2023-08-02T08:10:48.786Z,81.93
2023-08-02T08:11:48.777Z,82.53
2023-08-02T08:12:48.725Z,81.93
2023-08-02T08:13:48.717Z,82.64
2023-08-02T08:14:48.733Z,81.93
2023-08-02T08:15:48.759Z,81.82
2023-08-02T08:16:48.754Z,82.09
2023-08-02T08:17:50.818Z,81.89
2023-08-02T08:18:50.799Z,82.79
2023-08-02T08:19:48.714Z,82.09
2023-08-02T08:20:48.738Z,82.29
2023-08-02T08:21:48.823Z,81.99
2023-08-02T08:22:48.695Z,82.29
2023-08-02T08:23:48.745Z,82.19
2023-08-02T08:24:48.607Z,82.09
2023-08-02T08:25:49.280Z,82.19
2023-08-02T08:26:48.618Z,82.70
2023-08-02T08:27:48.684Z,82.70
2023-08-02T08:28:48.603Z,83.00
2023-08-02T08:29:48.598Z,83.10
2023-08-02T08:30:48.588Z,82.79
2023-08-02T08:31:48.717Z,82.59
2023-08-02T08:32:48.629Z,82.59
2023-08-02T08:33:48.518Z,83.20
2023-08-02T08:34:48.475Z,81.89
2023-08-02T08:35:48.565Z,82.70
2023-08-02T08:36:48.593Z,82.50
2023-08-02T08:37:48.680Z,83.00
2023-08-02T08:38:51.029Z,83.26
2023-08-02T08:39:53.793Z,83.46
2023-08-02T08:40:48.415Z,83.16
2023-08-02T08:41:48.396Z,82.25
2023-08-02T08:42:48.438Z,81.95
2023-08-02T08:43:48.423Z,81.85
2023-08-02T08:44:48.364Z,82.56
2023-08-02T08:45:48.370Z,82.56
2023-08-02T08:46:48.360Z,83.00
2023-08-02T08:47:48.482Z,82.90
2023-08-02T08:48:48.362Z,82.79
2023-08-02T08:49:48.304Z,81.99
2023-08-02T08:50:48.290Z,82.90
2023-08-02T08:51:48.297Z,83.20
2023-08-02T08:52:48.295Z,82.09
2023-08-02T08:53:48.269Z,82.70
2023-08-02T08:54:48.292Z,82.90
2023-08-02T08:55:49.018Z,82.96
2023-08-02T08:56:48.262Z,83.46
2023-08-02T08:57:48.264Z,83.66
2023-08-02T08:58:48.195Z,83.46
2023-08-02T08:59:48.196Z,83.36
2023-08-02T09:00:48.382Z,83.36
2023-08-02T09:01:48.237Z,83.46
2023-08-02T09:02:48.329Z,83.46
2023-08-02T09:03:48.239Z,83.26
2023-08-02T09:04:48.170Z,83.16
2023-08-02T09:05:48.182Z,82.86
2023-08-02T09:06:48.153Z,82.65
2023-08-02T09:07:48.132Z,82.86
2023-08-02T09:08:48.122Z,83.16
2023-08-02T09:09:48.110Z,82.45
2023-08-02T09:10:48.110Z,83.16
2023-08-02T09:11:48.271Z,83.36
2023-08-02T09:12:48.055Z,83.26
2023-08-02T09:13:48.053Z,83.36
2023-08-02T09:14:48.151Z,83.87
2023-08-02T09:15:49.668Z,84.17
2023-08-02T09:16:48.008Z,84.47
2023-08-02T09:17:48.065Z,84.17
2023-08-02T09:18:48.089Z,84.17
2023-08-02T09:19:48.011Z,84.57
2023-08-02T09:20:48.028Z,84.57
2023-08-02T09:21:47.956Z,83.36
2023-08-02T09:22:48.762Z,83.56
2023-08-02T09:23:47.923Z,83.36
2023-08-02T09:24:47.968Z,83.97
2023-08-02T09:25:47.936Z,83.87
2023-08-02T09:26:48.058Z,84.13
2023-08-02T09:27:47.889Z,83.93
2023-08-02T09:28:47.864Z,83.52
2023-08-02T09:29:47.870Z,83.52
2023-08-02T09:30:47.832Z,83.83
2023-08-02T09:31:47.966Z,83.62
2023-08-02T09:32:47.961Z,84.03
2023-08-02T09:33:48.880Z,83.97
2023-08-02T09:34:47.850Z,84.37
2023-08-02T09:35:50.490Z,83.56
2023-08-02T09:36:47.786Z,83.66
2023-08-02T09:37:47.818Z,84.37
2023-08-02T09:38:49.935Z,85.88
2023-08-02T09:39:47.788Z,86.29
2023-08-02T09:41:26.273Z,85.98
2023-08-02T09:42:00.263Z,85.94
2023-08-02T09:42:47.758Z,86.35
2023-08-02T09:43:49.633Z,85.84
2023-08-02T09:44:47.926Z,84.94
2023-08-02T09:45:56.787Z,84.88
2023-08-02T09:47:02.152Z,85.48
2023-08-02T09:47:47.827Z,85.78
2023-08-02T09:48:47.694Z,86.08
2023-08-02T09:49:47.631Z,85.68
2023-08-02T09:50:55.667Z,86.18
2023-08-02T09:51:47.650Z,85.58
2023-08-02T09:52:47.606Z,85.88
2023-08-02T09:53:47.835Z,85.42
2023-08-02T09:54:47.604Z,85.52
2023-08-02T09:55:47.592Z,86.33
2023-08-02T09:56:47.558Z,86.22
2023-08-02T09:57:47.592Z,86.43
2023-08-02T09:58:47.559Z,85.31
2023-08-02T09:59:47.545Z,85.52
2023-08-02T10:00:49.408Z,86.22
2023-08-02T10:01:47.982Z,86.33
2023-08-02T10:02:48.849Z,86.93
2023-08-02T10:03:47.582Z,86.93
2023-08-02T10:04:47.495Z,87.13
2023-08-02T10:05:47.456Z,87.34
2023-08-02T10:06:47.510Z,86.97
2023-08-02T10:07:47.575Z,87.27
2023-08-02T10:12:05.256Z,88.59
2023-08-02T10:13:05.527Z,88.59
2023-08-02T10:14:05.989Z,88.79
2023-08-02T10:15:31.722Z,88.79
2023-08-02T10:16:05.501Z,88.79
2023-08-02T10:17:05.524Z,89.13
2023-08-02T10:18:28.634Z,89.23
2023-08-02T10:19:05.528Z,89.39
2023-08-02T10:20:05.355Z,89.59
2023-08-02T10:21:05.338Z,89.79
2023-08-02T10:22:05.369Z,89.39
2023-08-02T10:23:05.328Z,89.50
2023-08-02T10:24:05.343Z,89.59
2023-08-02T10:25:05.298Z,89.54
2023-08-02T10:26:05.323Z,89.23
2023-08-02T10:27:05.301Z,89.03
2023-08-02T10:28:05.258Z,89.03
2023-08-02T10:29:05.258Z,89.23
2023-08-02T10:30:05.258Z,88.93
2023-08-02T10:31:05.238Z,89.13
2023-08-02T10:32:05.305Z,89.23
2023-08-02T10:33:05.301Z,89.43
2023-08-02T10:34:05.200Z,89.74
2023-08-02T10:35:05.209Z,89.64
2023-08-02T10:36:05.273Z,89.34
2023-08-02T10:37:05.200Z,89.43
2023-08-02T10:38:05.165Z,89.64
2023-08-02T10:39:05.161Z,89.74
2023-08-02T10:40:05.181Z,89.74
2023-08-02T10:41:05.195Z,89.74
2023-08-02T10:42:05.165Z,89.94
2023-08-02T10:43:05.102Z,89.94
2023-08-02T10:44:05.083Z,90.14
2023-08-02T10:45:05.076Z,90.04
2023-08-02T10:46:05.085Z,89.94
2023-08-02T10:47:05.115Z,89.94
2023-08-02T10:48:05.089Z,89.84
2023-08-02T10:49:05.044Z,89.59
2023-08-02T10:50:05.068Z,89.59
2023-08-02T10:51:05.052Z,89.50
2023-08-02T10:52:05.016Z,89.55
2023-08-02T10:53:04.985Z,89.15
2023-08-02T10:54:04.978Z,89.05
2023-08-02T10:55:05.007Z,88.70
2023-08-02T10:56:05.054Z,88.60
2023-08-02T10:57:04.951Z,88.20
2023-08-02T10:58:04.963Z,88.26
2023-08-02T10:59:04.938Z,88.06
2023-08-02T11:00:04.929Z,87.92
2023-08-02T11:01:04.925Z,87.62
2023-08-02T11:02:04.906Z,87.57
2023-08-02T11:03:04.977Z,87.47
2023-08-02T11:04:04.886Z,87.23
2023-08-02T11:05:04.928Z,86.72
2023-08-02T11:06:04.926Z,86.08
2023-08-02T11:07:04.868Z,84.47
2023-08-02T11:08:04.836Z,83.17
2023-08-02T11:09:04.922Z,83.57
2023-08-02T11:10:04.820Z,82.56
2023-08-02T11:11:04.853Z,83.37
2023-08-02T11:12:04.915Z,83.57
2023-08-02T11:13:04.883Z,83.93
2023-08-02T11:14:04.769Z,83.63
2023-08-02T11:15:04.772Z,83.73
2023-08-02T11:16:05.046Z,83.18
2023-08-02T11:17:13.435Z,83.18
2023-08-02T11:18:10.084Z,82.68
2023-08-02T11:19:04.920Z,82.64
2023-08-02T11:20:06.462Z,82.95
2023-08-02T11:21:04.711Z,82.45
2023-08-02T11:23:25.256Z,82.10
2023-08-02T11:24:51.276Z,81.40
2023-08-02T11:26:23.221Z,82.10
2023-08-02T11:27:23.463Z,81.10
2023-08-02T11:28:23.211Z,81.36
2023-08-02T11:31:35.164Z,81.12
2023-08-02T11:32:35.223Z,79.62
2023-08-02T11:33:35.267Z,79.92
2023-08-02T11:34:35.146Z,80.28
2023-08-02T11:35:35.372Z,78.72
2023-08-02T11:36:35.211Z,79.68
2023-08-02T11:37:35.103Z,78.68
2023-08-02T11:38:47.567Z,78.88
2023-08-02T11:39:35.091Z,78.31
2023-08-02T11:40:35.065Z,78.11
2023-08-02T11:41:35.057Z,78.72
2023-08-02T11:42:35.079Z,79.72
2023-08-02T11:43:35.116Z,79.52
2023-08-02T11:44:36.106Z,79.38
2023-08-02T11:45:35.081Z,77.98
2023-08-02T11:46:36.822Z,78.78
2023-08-02T11:47:37.801Z,78.58
2023-08-02T11:48:36.591Z,76.57
2023-08-02T11:49:35.063Z,77.87
2023-08-02T11:50:35.027Z,76.57
2023-08-02T11:51:34.933Z,76.87
2023-08-02T11:52:34.986Z,77.17
2023-08-02T11:53:35.015Z,76.78
2023-08-02T11:54:34.919Z,77.28
2023-08-02T11:55:34.953Z,76.74
2023-08-02T11:56:34.910Z,76.94
2023-08-02T11:57:34.902Z,76.17
2023-08-02T11:58:34.937Z,75.37
2023-08-02T11:59:35.759Z,77.08
2023-08-02T12:00:34.921Z,75.77
2023-08-02T12:01:34.918Z,76.37
2023-08-02T12:02:34.990Z,75.17
2023-08-02T12:03:34.843Z,75.67
2023-08-02T12:04:34.840Z,76.47
2023-08-02T12:05:34.828Z,75.77
2023-08-02T12:06:34.853Z,75.47
2023-08-02T12:07:34.852Z,76.07
2023-08-02T12:08:34.822Z,76.37
2023-08-02T12:09:34.779Z,76.87
2023-08-02T12:10:34.816Z,75.47
2023-08-02T12:11:34.732Z,76.04
2023-08-02T12:12:34.745Z,75.93
2023-08-02T12:13:34.713Z,75.13
2023-08-02T12:14:37.316Z,75.23
2023-08-02T12:15:34.736Z,75.74
2023-08-02T12:16:34.831Z,76.20
2023-08-02T12:17:34.734Z,76.10
2023-08-02T12:18:34.674Z,75.30
2023-08-02T12:19:34.641Z,73.00
2023-08-02T12:20:34.622Z,72.66
2023-08-02T12:21:34.665Z,73.66
2023-08-02T12:22:34.609Z,73.86
2023-08-02T12:23:34.643Z,75.16
2023-08-02T12:24:34.591Z,74.53
2023-08-02T12:25:34.590Z,73.13
2023-08-02T12:26:34.654Z,72.63
2023-08-02T12:27:34.603Z,73.13
2023-08-02T12:28:34.540Z,74.13
2023-08-02T12:29:34.528Z,72.89
2023-08-02T12:30:34.558Z,72.89
2023-08-02T12:31:35.561Z,73.79
2023-08-02T12:32:34.697Z,73.09
2023-08-02T12:33:34.516Z,73.49
2023-08-02T12:34:34.480Z,72.19
2023-08-02T12:35:34.488Z,72.99
2023-08-02T12:36:34.544Z,72.69
2023-08-02T12:37:34.471Z,72.59
2023-08-02T12:38:34.502Z,73.46
2023-08-02T12:39:34.424Z,72.66
2023-08-02T12:40:34.518Z,72.26
2023-08-02T12:41:34.433Z,72.56
2023-08-02T12:42:35.990Z,72.26
2023-08-02T12:43:34.425Z,70.46
2023-08-02T12:44:34.353Z,70.56
2023-08-02T12:45:34.382Z,71.66
2023-08-02T12:46:34.343Z,71.66
2023-08-02T12:47:34.372Z,71.16
2023-08-02T12:48:34.326Z,70.36
2023-08-02T12:49:34.336Z,70.92
2023-08-02T12:50:34.336Z,69.53
2023-08-02T12:51:34.281Z,70.72
2023-08-02T12:52:34.351Z,70.23
2023-08-02T12:53:34.339Z,71.03
2023-08-02T12:54:34.263Z,69.23
2023-08-02T12:55:34.330Z,70.23
2023-08-02T12:56:34.261Z,70.49
2023-08-02T12:57:34.282Z,70.49
2023-08-02T12:58:34.221Z,70.69
2023-08-02T12:59:35.265Z,70.29
2023-08-02T13:00:34.196Z,70.39